createdAt,value
2023-10-10T00:00:39.279Z,14.30
2023-10-10T00:03:07.362Z,14.30
2023-10-10T00:05:37.828Z,14.40
2023-10-10T00:08:06.651Z,14.40
2023-10-10T00:10:35.518Z,14.30
2023-10-10T00:13:05.265Z,14.30
2023-10-10T00:15:36.385Z,14.20
2023-10-10T00:18:16.318Z,14.10
2023-10-10T00:20:43.912Z,14.00
2023-10-10T00:23:17.357Z,14.20
2023-10-10T00:25:45.429Z,14.30
2023-10-10T00:28:19.220Z,14.20
2023-10-10T00:30:51.055Z,14.20
2023-10-10T00:33:18.633Z,14.20
2023-10-10T00:35:49.040Z,14.10
2023-10-10T00:38:20.967Z,14.20
2023-10-10T00:40:49.118Z,14.10
2023-10-10T00:43:23.798Z,14.10
2023-10-10T00:45:55.839Z,14.10
2023-10-10T00:48:24.270Z,14.10
2023-10-10T00:50:54.656Z,14.10
2023-10-10T00:53:24.093Z,14.30
2023-10-10T00:55:57.875Z,14.20
2023-10-10T00:58:29.758Z,14.10
2023-10-10T01:00:57.123Z,14.20
2023-10-10T01:03:24.281Z,14.10
2023-10-10T01:05:54.626Z,14.00
2023-10-10T01:08:24.746Z,14.10
2023-10-10T01:10:52.241Z,14.20
2023-10-10T01:13:19.054Z,14.10
2023-10-10T01:15:46.034Z,14.30
2023-10-10T01:18:16.265Z,14.00
2023-10-10T01:20:46.909Z,14.20
2023-10-10T01:23:19.849Z,14.00
2023-10-10T01:25:48.486Z,14.10
2023-10-10T01:28:22.175Z,14.20
2023-10-10T01:31:00.450Z,14.20
2023-10-10T01:33:38.478Z,14.10
2023-10-10T01:36:13.315Z,14.00
2023-10-10T01:38:42.965Z,13.90
2023-10-10T01:41:17.251Z,14.10
2023-10-10T01:43:47.266Z,14.00
2023-10-10T01:46:29.870Z,13.90
2023-10-10T01:49:02.612Z,14.00
2023-10-10T01:51:43.514Z,13.90
2023-10-10T01:54:16.682Z,14.00
2023-10-10T01:56:44.062Z,14.10
2023-10-10T01:59:15.084Z,14.00
2023-10-10T02:01:43.021Z,14.20
2023-10-10T02:04:11.615Z,13.90
2023-10-10T02:06:41.698Z,13.90
2023-10-10T02:09:28.202Z,13.80
2023-10-10T02:11:56.504Z,13.90
2023-10-10T02:14:26.984Z,13.80
2023-10-10T02:16:57.225Z,13.70
2023-10-10T02:19:50.145Z,13.70
2023-10-10T02:22:23.838Z,13.70
2023-10-10T02:25:10.037Z,13.50
2023-10-10T02:27:54.657Z,13.50
2023-10-10T02:30:41.477Z,13.30
2023-10-10T02:33:24.812Z,13.20
2023-10-10T02:36:00.308Z,13.10
2023-10-10T02:38:41.144Z,13.00
2023-10-10T02:41:22.695Z,13.00
2023-10-10T02:43:57.616Z,13.00
2023-10-10T02:46:39.479Z,13.10
2023-10-10T02:49:33.681Z,13.30
2023-10-10T02:52:07.520Z,13.30
2023-10-10T02:54:35.565Z,13.10
2023-10-10T02:57:25.399Z,13.30
2023-10-10T03:00:15.784Z,13.30
2023-10-10T03:02:55.882Z,13.20
2023-10-10T03:05:40.821Z,13.00
2023-10-10T03:08:28.882Z,13.20
2023-10-10T03:10:55.873Z,12.90
2023-10-10T03:13:33.282Z,12.80
2023-10-10T03:16:16.332Z,12.70
2023-10-10T03:18:55.024Z,12.70
2023-10-10T03:21:37.278Z,12.80
2023-10-10T03:24:30.899Z,12.80
2023-10-10T03:27:32.523Z,12.70
2023-10-10T03:30:18.458Z,12.60
2023-10-10T03:33:02.027Z,13.00
2023-10-10T03:35:48.882Z,12.90
2023-10-10T03:38:35.782Z,13.00
2023-10-10T03:41:08.459Z,12.70
2023-10-10T03:43:55.135Z,12.80
2023-10-10T03:46:40.527Z,12.70
2023-10-10T03:49:25.871Z,12.80
2023-10-10T03:52:11.238Z,12.90
2023-10-10T03:54:56.904Z,12.80
2023-10-10T03:57:42.274Z,12.80
2023-10-10T04:00:28.099Z,13.10
2023-10-10T04:03:13.537Z,13.00
2023-10-10T04:05:58.838Z,13.20
2023-10-10T04:08:44.303Z,13.10
2023-10-10T04:11:30.858Z,12.90
2023-10-10T04:14:16.334Z,13.00
2023-10-10T04:17:02.665Z,13.00
2023-10-10T04:19:48.641Z,12.90
2023-10-10T04:22:33.946Z,12.80
2023-10-10T04:25:19.218Z,12.90
2023-10-10T04:28:04.788Z,12.90
2023-10-10T04:30:50.057Z,12.70
2023-10-10T04:33:35.406Z,12.80
2023-10-10T04:36:20.677Z,12.80
2023-10-10T04:39:05.940Z,12.90
2023-10-10T04:41:51.506Z,12.80
2023-10-10T04:44:37.093Z,13.00
2023-10-10T04:47:22.390Z,12.90
2023-10-10T04:50:07.625Z,12.80
2023-10-10T04:52:53.456Z,12.70
2023-10-10T04:55:39.231Z,12.70
2023-10-10T04:58:24.787Z,12.90
2023-10-10T05:01:10.065Z,12.90
2023-10-10T05:03:55.447Z,13.00
2023-10-10T05:06:40.863Z,12.90
2023-10-10T05:09:26.145Z,12.90
2023-10-10T05:12:13.091Z,12.70
2023-10-10T05:14:58.438Z,12.90
2023-10-10T05:17:43.761Z,12.80
2023-10-10T05:20:29.542Z,12.80
2023-10-10T05:23:14.909Z,12.90
2023-10-10T05:25:42.644Z,12.60
2023-10-10T05:28:12.181Z,12.40
2023-10-10T05:30:44.346Z,12.50
2023-10-10T05:33:11.959Z,12.50
2023-10-10T05:35:40.574Z,12.50
2023-10-10T05:38:08.672Z,12.30
2023-10-10T05:40:35.945Z,12.50
2023-10-10T05:43:04.281Z,12.60
2023-10-10T05:45:34.015Z,12.60
2023-10-10T05:48:00.938Z,12.40
2023-10-10T05:50:28.337Z,12.60
2023-10-10T05:52:55.169Z,12.50
2023-10-10T05:55:22.046Z,12.50
2023-10-10T05:57:48.826Z,12.50
2023-10-10T06:00:15.817Z,12.70
2023-10-10T06:02:48.653Z,12.80
2023-10-10T06:05:19.230Z,12.80
2023-10-10T06:07:46.100Z,12.80
2023-10-10T06:10:19.262Z,12.80
2023-10-10T06:12:47.822Z,12.70
2023-10-10T06:15:19.008Z,12.70
2023-10-10T06:17:46.683Z,12.50
2023-10-10T06:20:17.523Z,12.60
2023-10-10T06:22:47.299Z,12.80
2023-10-10T06:25:18.489Z,12.70
2023-10-10T06:27:55.463Z,12.80
2023-10-10T06:30:25.676Z,12.90
2023-10-10T06:32:55.696Z,12.80
2023-10-10T06:35:22.625Z,12.80
2023-10-10T06:37:55.721Z,13.00
2023-10-10T06:40:29.491Z,12.90
2023-10-10T06:43:03.197Z,13.00
2023-10-10T06:45:35.996Z,13.10
2023-10-10T06:48:03.081Z,13.30
2023-10-10T06:50:39.978Z,13.20
2023-10-10T06:53:07.016Z,13.50
2023-10-10T06:55:39.938Z,13.30
2023-10-10T06:58:07.565Z,13.40
2023-10-10T07:00:43.857Z,13.40
2023-10-10T07:03:11.508Z,13.40
2023-10-10T07:05:40.862Z,13.50
2023-10-10T07:08:14.489Z,13.60
2023-10-10T07:10:44.156Z,13.60
2023-10-10T07:13:15.494Z,13.70
2023-10-10T07:15:43.725Z,13.70
2023-10-10T07:18:15.590Z,13.90
2023-10-10T07:21:05.111Z,13.80
2023-10-10T07:23:40.262Z,14.00
2023-10-10T07:26:20.104Z,13.90
2023-10-10T07:28:53.911Z,13.90
2023-10-10T07:31:23.884Z,14.00
2023-10-10T07:33:57.826Z,14.10
2023-10-10T07:36:26.252Z,14.30
2023-10-10T07:39:16.903Z,14.30
2023-10-10T07:41:47.056Z,14.30
2023-10-10T07:44:23.967Z,14.40
2023-10-10T07:47:09.716Z,14.40
2023-10-10T07:49:36.988Z,14.80
2023-10-10T07:52:04.290Z,14.60
2023-10-10T07:54:35.319Z,14.80
2023-10-10T07:57:08.401Z,14.70
2023-10-10T07:59:37.983Z,14.60
2023-10-10T08:02:25.596Z,14.70
2023-10-10T08:04:54.585Z,14.80
2023-10-10T08:07:24.038Z,14.70
2023-10-10T08:10:20.650Z,15.10
2023-10-10T08:12:53.361Z,15.00
2023-10-10T08:15:20.688Z,15.00
2023-10-10T08:17:53.892Z,15.00
2023-10-10T08:20:57.025Z,15.00
2023-10-10T08:23:25.985Z,15.20
2023-10-10T08:25:53.919Z,15.30
2023-10-10T08:28:23.960Z,15.30
2023-10-10T08:30:51.980Z,15.40
2023-10-10T08:33:18.903Z,15.50
2023-10-10T08:35:48.018Z,15.70
2023-10-10T08:38:21.513Z,15.90
2023-10-10T08:40:59.736Z,15.80
2023-10-10T08:43:30.224Z,15.70
2023-10-10T08:46:05.434Z,15.80
2023-10-10T08:48:35.266Z,15.80
2023-10-10T08:51:06.645Z,15.80
2023-10-10T08:53:39.668Z,15.90
2023-10-10T08:56:08.009Z,15.90
2023-10-10T08:58:37.276Z,16.00
2023-10-10T09:01:06.741Z,15.90
2023-10-10T09:03:36.382Z,16.00
2023-10-10T09:06:20.725Z,16.30
2023-10-10T09:08:53.607Z,16.40
2023-10-10T09:11:21.923Z,16.30
2023-10-10T09:13:52.497Z,16.30
2023-10-10T09:16:42.407Z,16.20
2023-10-10T09:19:09.870Z,16.60
2023-10-10T09:21:57.100Z,16.70
2023-10-10T09:24:32.845Z,16.70
2023-10-10T09:27:22.724Z,16.70
2023-10-10T09:29:55.991Z,17.00
2023-10-10T09:32:37.460Z,16.80
2023-10-10T09:35:08.051Z,16.90
2023-10-10T09:37:39.817Z,16.90
2023-10-10T09:40:16.805Z,16.90
2023-10-10T09:43:02.154Z,16.90
2023-10-10T09:45:51.034Z,16.80
2023-10-10T09:48:29.553Z,16.90
2023-10-10T09:51:18.200Z,16.90
2023-10-10T09:53:48.719Z,17.10
2023-10-10T09:56:16.709Z,17.20
2023-10-10T09:58:45.338Z,17.10
2023-10-10T10:01:24.921Z,17.20
2023-10-10T10:04:04.341Z,17.30
2023-10-10T10:07:07.041Z,17.30
2023-10-10T10:09:54.123Z,17.40
2023-10-10T10:12:34.189Z,17.30
2023-10-10T10:15:25.324Z,17.40
2023-10-10T10:18:19.899Z,17.40
2023-10-10T10:21:22.105Z,17.30
2023-10-10T10:23:57.045Z,17.40
2023-10-10T10:26:34.084Z,17.60
2023-10-10T10:29:16.947Z,17.50
2023-10-10T10:31:58.770Z,17.70
2023-10-10T10:34:36.250Z,17.60
2023-10-10T10:37:13.918Z,17.70
2023-10-10T10:40:03.099Z,17.70
2023-10-10T10:42:30.413Z,17.70
2023-10-10T10:45:00.541Z,17.80
2023-10-10T10:47:37.364Z,18.00
2023-10-10T10:50:05.973Z,18.20
2023-10-10T10:52:46.150Z,18.10
2023-10-10T10:55:31.024Z,18.00
2023-10-10T10:58:07.492Z,18.00
2023-10-10T11:00:58.060Z,18.00
2023-10-10T11:03:26.127Z,18.10
2023-10-10T11:05:56.351Z,18.10
2023-10-10T11:08:54.893Z,18.10
2023-10-10T11:11:33.047Z,18.10
2023-10-10T11:14:16.569Z,18.00
2023-10-10T11:16:47.330Z,18.00
2023-10-10T11:19:25.065Z,18.00
2023-10-10T11:21:56.916Z,18.10
2023-10-10T11:24:26.853Z,18.20
2023-10-10T11:27:22.693Z,18.20
2023-10-10T11:30:01.952Z,18.20
2023-10-10T11:32:37.673Z,18.30
2023-10-10T11:35:17.019Z,18.40
2023-10-10T11:37:45.515Z,18.30
2023-10-10T11:40:23.942Z,18.30
2023-10-10T11:42:51.074Z,18.40
2023-10-10T11:45:27.176Z,18.30
2023-10-10T11:48:02.132Z,18.40
2023-10-10T11:50:50.377Z,18.40
2023-10-10T11:53:25.359Z,18.70
2023-10-10T11:55:56.579Z,18.60
2023-10-10T11:58:37.284Z,18.60
2023-10-10T12:01:07.272Z,18.90
2023-10-10T12:03:41.664Z,18.70
2023-10-10T12:06:19.079Z,18.70
2023-10-10T12:08:49.405Z,18.90
2023-10-10T12:11:23.403Z,19.20
2023-10-10T12:13:52.458Z,19.30
2023-10-10T12:16:29.324Z,19.30
2023-10-10T12:18:56.329Z,19.10
2023-10-10T12:21:24.302Z,19.20
2023-10-10T12:24:00.670Z,19.40
2023-10-10T12:26:30.760Z,19.60
2023-10-10T12:28:58.066Z,19.70
2023-10-10T12:31:25.240Z,19.40
2023-10-10T12:33:54.981Z,19.30
2023-10-10T12:36:30.609Z,19.40
2023-10-10T12:38:59.398Z,19.50
2023-10-10T12:41:27.895Z,19.60
2023-10-10T12:43:54.883Z,19.80
2023-10-10T12:46:22.499Z,19.80
2023-10-10T12:48:53.157Z,19.80
2023-10-10T12:51:23.911Z,19.70
2023-10-10T12:54:01.334Z,19.80
2023-10-10T12:56:29.521Z,19.60
2023-10-10T12:59:18.304Z,19.80
2023-10-10T13:01:48.832Z,20.10
2023-10-10T13:04:19.024Z,20.20
2023-10-10T13:06:52.686Z,20.20
2023-10-10T13:09:20.331Z,20.30
2023-10-10T13:11:48.326Z,20.30
2023-10-10T13:14:20.421Z,20.30
2023-10-10T13:16:47.377Z,20.30
2023-10-10T13:19:14.765Z,20.10
2023-10-10T13:21:43.628Z,19.90
2023-10-10T13:24:11.296Z,20.10
2023-10-10T13:26:38.781Z,20.10
2023-10-10T13:29:08.965Z,20.40
2023-10-10T13:31:36.375Z,20.40
2023-10-10T13:34:04.321Z,20.30
2023-10-10T13:36:31.861Z,20.20
2023-10-10T13:39:06.758Z,20.20
2023-10-10T13:41:37.285Z,20.50
2023-10-10T13:44:05.203Z,20.40
2023-10-10T13:46:34.395Z,20.60
2023-10-10T13:49:01.889Z,20.50
2023-10-10T13:51:29.354Z,20.40
2023-10-10T13:53:59.346Z,20.40
2023-10-10T13:56:32.131Z,20.30
2023-10-10T13:59:01.516Z,20.40
2023-10-10T14:01:37.964Z,20.40
2023-10-10T14:04:17.057Z,20.30
2023-10-10T14:06:47.501Z,20.40
2023-10-10T14:09:23.116Z,20.30
2023-10-10T14:11:58.514Z,20.40
2023-10-10T14:14:25.471Z,20.50
2023-10-10T14:16:52.547Z,20.30
2023-10-10T14:19:19.665Z,20.50
2023-10-10T14:21:48.781Z,20.30
2023-10-10T14:24:16.336Z,20.30
2023-10-10T14:26:46.178Z,20.30
2023-10-10T14:29:14.542Z,20.30
2023-10-10T14:31:49.084Z,20.30
2023-10-10T14:34:25.942Z,20.20
2023-10-10T14:36:56.141Z,20.10
2023-10-10T14:39:33.339Z,20.10
2023-10-10T14:42:00.775Z,20.00
2023-10-10T14:44:29.560Z,20.10
2023-10-10T14:46:59.084Z,19.70
2023-10-10T14:49:32.708Z,19.80
2023-10-10T14:52:07.938Z,19.70
2023-10-10T14:54:39.313Z,19.80
2023-10-10T14:57:07.232Z,19.80
2023-10-10T14:59:35.232Z,19.50
2023-10-10T15:02:02.702Z,19.60
2023-10-10T15:04:34.339Z,19.60
2023-10-10T15:07:01.574Z,19.60
2023-10-10T15:09:28.552Z,19.50
2023-10-10T15:12:08.200Z,19.40
2023-10-10T15:14:35.073Z,19.50
2023-10-10T15:17:04.857Z,19.50
2023-10-10T15:19:31.884Z,19.30
2023-10-10T15:22:00.114Z,19.20
2023-10-10T15:24:28.230Z,19.30
2023-10-10T15:26:57.282Z,19.30
2023-10-10T15:29:24.320Z,19.10
2023-10-10T15:31:51.913Z,19.00
2023-10-10T15:34:19.117Z,19.00
2023-10-10T15:36:47.083Z,18.70
2023-10-10T15:39:15.297Z,18.70
2023-10-10T15:41:43.821Z,18.60
2023-10-10T15:44:13.802Z,18.60
2023-10-10T15:46:44.723Z,18.50
2023-10-10T15:51:45.755Z,18.30
2023-10-10T15:54:15.921Z,18.20
2023-10-10T15:56:43.657Z,18.10
2023-10-10T15:59:16.257Z,18.00
2023-10-10T16:01:48.040Z,17.90
2023-10-10T16:04:15.272Z,17.80
2023-10-10T16:06:43.480Z,17.70
2023-10-10T16:09:12.238Z,17.60
2023-10-10T16:11:41.472Z,17.40
2023-10-10T16:14:15.366Z,17.30
2023-10-10T16:16:47.000Z,17.10
2023-10-10T16:19:14.847Z,17.10
2023-10-10T16:21:45.478Z,17.10
2023-10-10T16:24:16.175Z,16.80
2023-10-10T16:26:49.090Z,16.60
2023-10-10T16:29:20.576Z,16.40
2023-10-10T16:31:48.209Z,16.40
2023-10-10T16:34:18.125Z,16.40
2023-10-10T16:36:49.869Z,16.30
2023-10-10T16:39:16.818Z,16.20
2023-10-10T16:41:43.846Z,16.10
2023-10-10T16:44:14.080Z,16.20
2023-10-10T16:46:42.361Z,16.10
2023-10-10T16:49:09.988Z,16.10
2023-10-10T16:51:37.217Z,16.10
2023-10-10T16:54:07.813Z,16.20
2023-10-10T16:56:37.834Z,15.90
2023-10-10T16:59:07.573Z,16.00
2023-10-10T17:01:35.958Z,15.80
2023-10-10T17:04:04.513Z,15.80
2023-10-10T17:06:32.842Z,15.70
2023-10-10T17:09:04.689Z,15.70
2023-10-10T17:11:31.618Z,15.60
2023-10-10T17:14:00.795Z,15.40
2023-10-10T17:16:30.788Z,15.40
2023-10-10T17:19:10.516Z,15.10
2023-10-10T17:21:43.723Z,15.20
2023-10-10T17:24:10.747Z,15.00
2023-10-10T17:26:44.430Z,15.20
2023-10-10T17:29:14.556Z,15.10
2023-10-10T17:31:41.554Z,15.10
2023-10-10T17:34:08.682Z,15.10
2023-10-10T17:36:38.627Z,15.00
2023-10-10T17:39:06.023Z,15.10
2023-10-10T17:41:36.096Z,15.00
2023-10-10T17:44:09.985Z,14.90
2023-10-10T17:46:37.288Z,15.00
2023-10-10T17:49:06.170Z,15.20
2023-10-10T17:51:35.226Z,15.20
2023-10-10T17:54:03.335Z,15.40
2023-10-10T17:56:30.293Z,15.10
2023-10-10T17:58:57.512Z,15.10
2023-10-10T18:01:24.613Z,15.00
2023-10-10T18:03:54.538Z,15.10
2023-10-10T18:06:23.518Z,14.90
2023-10-10T18:08:55.295Z,14.90
2023-10-10T18:11:27.346Z,15.00
2023-10-10T18:13:54.578Z,15.20
2023-10-10T18:16:22.956Z,15.10
2023-10-10T18:18:53.051Z,15.10
2023-10-10T18:21:21.155Z,15.00
2023-10-10T18:23:48.895Z,14.80
2023-10-10T18:26:24.151Z,14.80
2023-10-10T18:28:55.065Z,14.80
2023-10-10T18:31:31.057Z,14.80
2023-10-10T18:33:58.524Z,14.80
2023-10-10T18:36:25.607Z,14.70
2023-10-10T18:38:53.611Z,14.70
2023-10-10T18:41:30.926Z,14.80
2023-10-10T18:43:57.864Z,14.90
2023-10-10T18:46:26.169Z,15.00
2023-10-10T18:48:53.085Z,14.80
2023-10-10T18:51:20.152Z,14.80
2023-10-10T18:53:48.359Z,14.90
2023-10-10T18:56:15.855Z,14.80
2023-10-10T18:58:42.853Z,14.90
2023-10-10T19:01:13.731Z,14.90
2023-10-10T19:03:48.208Z,14.60
2023-10-10T19:06:17.074Z,14.50
2023-10-10T19:08:45.343Z,14.40
2023-10-10T19:11:18.336Z,14.50
2023-10-10T19:13:49.736Z,14.50
2023-10-10T19:16:17.544Z,14.90
2023-10-10T19:18:46.106Z,14.60
2023-10-10T19:21:16.057Z,14.60
2023-10-10T19:23:43.813Z,14.70
2023-10-10T19:26:13.333Z,14.50
2023-10-10T19:28:40.187Z,14.40
2023-10-10T19:31:06.958Z,14.60
2023-10-10T19:33:33.993Z,14.70
2023-10-10T19:36:01.363Z,14.60
2023-10-10T19:38:28.318Z,14.70
2023-10-10T19:40:56.631Z,14.60
2023-10-10T19:43:23.495Z,14.40
2023-10-10T19:45:50.582Z,14.60
2023-10-10T19:48:17.962Z,14.70
2023-10-10T19:50:49.492Z,14.70
2023-10-10T19:53:17.347Z,14.70
2023-10-10T19:55:45.768Z,14.70
2023-10-10T19:58:13.960Z,14.60
2023-10-10T20:00:46.811Z,14.50
2023-10-10T20:03:15.581Z,14.70
2023-10-10T20:05:44.298Z,14.70
2023-10-10T20:08:14.157Z,14.50
2023-10-10T20:10:41.836Z,14.50
2023-10-10T20:13:08.903Z,14.30
2023-10-10T20:15:43.472Z,14.40
2023-10-10T20:18:11.118Z,14.30
2023-10-10T20:20:41.229Z,14.10
2023-10-10T20:23:10.102Z,14.20
2023-10-10T20:25:41.456Z,14.00
2023-10-10T20:28:10.295Z,13.90
2023-10-10T20:30:44.806Z,13.90
2023-10-10T20:33:19.584Z,13.80
2023-10-10T20:35:47.195Z,13.70
2023-10-10T20:38:19.915Z,13.90
2023-10-10T20:40:46.918Z,13.80
2023-10-10T20:43:14.129Z,13.80
2023-10-10T20:45:41.124Z,13.70
2023-10-10T20:48:16.655Z,13.70
2023-10-10T20:50:45.392Z,13.60
2023-10-10T20:53:13.223Z,13.50
2023-10-10T20:55:42.664Z,13.50
2023-10-10T20:58:12.122Z,13.60
2023-10-10T21:00:40.059Z,13.60
2023-10-10T21:03:11.626Z,13.70
2023-10-10T21:05:44.241Z,13.80
2023-10-10T21:08:11.574Z,13.90
2023-10-10T21:10:41.327Z,13.90
2023-10-10T21:13:08.749Z,14.10
2023-10-10T21:15:35.809Z,14.10
2023-10-10T21:18:02.911Z,14.00
2023-10-10T21:20:31.999Z,13.90
2023-10-10T21:23:02.714Z,13.90
2023-10-10T21:25:33.014Z,13.90
2023-10-10T21:28:00.380Z,14.00
2023-10-10T21:30:30.411Z,13.90
2023-10-10T21:32:58.564Z,13.90
2023-10-10T21:35:33.664Z,13.70
2023-10-10T21:38:00.525Z,13.60
2023-10-10T21:40:28.276Z,13.50
2023-10-10T21:42:56.914Z,13.60
2023-10-10T21:45:24.845Z,13.70
2023-10-10T21:47:55.757Z,13.80
2023-10-10T21:50:24.181Z,13.70
2023-10-10T21:52:52.333Z,13.80
2023-10-10T21:55:22.690Z,13.70
2023-10-10T21:57:51.357Z,13.80
2023-10-10T22:00:25.651Z,13.70
2023-10-10T22:02:53.567Z,13.70
2023-10-10T22:05:22.708Z,13.80
2023-10-10T22:07:49.965Z,13.50
2023-10-10T22:10:22.032Z,13.60
2023-10-10T22:12:51.654Z,13.60
2023-10-10T22:15:36.342Z,13.70
2023-10-10T22:18:07.608Z,13.60
2023-10-10T22:20:35.238Z,13.60
2023-10-10T22:23:02.903Z,13.60
2023-10-10T22:25:33.184Z,13.70
2023-10-10T22:28:01.485Z,13.80
2023-10-10T22:30:33.793Z,13.70
2023-10-10T22:33:01.479Z,13.60
2023-10-10T22:35:30.160Z,13.70
2023-10-10T22:37:57.338Z,13.80
2023-10-10T22:40:28.094Z,13.80
2023-10-10T22:43:02.723Z,13.80
2023-10-10T22:45:34.101Z,13.70
2023-10-10T22:48:02.456Z,13.70
2023-10-10T22:50:33.228Z,13.60
2023-10-10T22:53:02.894Z,13.60
2023-10-10T22:55:34.681Z,13.70
2023-10-10T22:58:07.412Z,13.80
2023-10-10T23:00:38.707Z,13.80
2023-10-10T23:03:10.961Z,14.10
2023-10-10T23:05:44.229Z,14.00
2023-10-10T23:08:12.624Z,14.20
2023-10-10T23:10:49.239Z,14.10
2023-10-10T23:13:17.022Z,13.90
2023-10-10T23:15:49.361Z,13.90
2023-10-10T23:18:20.271Z,13.80
2023-10-10T23:20:47.406Z,13.60
2023-10-10T23:23:14.638Z,13.40
2023-10-10T23:25:43.672Z,13.40
2023-10-10T23:28:10.448Z,13.50
2023-10-10T23:30:40.195Z,13.50
2023-10-10T23:33:12.373Z,13.60
2023-10-10T23:35:39.938Z,13.70
2023-10-10T23:38:07.055Z,13.70
2023-10-10T23:40:41.355Z,13.70
2023-10-10T23:43:10.465Z,13.70
2023-10-10T23:45:43.397Z,13.70
2023-10-10T23:48:16.453Z,13.70
2023-10-10T23:50:44.843Z,13.80
2023-10-10T23:53:15.435Z,13.40
2023-10-10T23:55:46.728Z,13.80
2023-10-10T23:58:13.997Z,13.80
